Time;durP1;ratioP1;P1;durP2;ratioP2;P2;SDS_P1;SDS_P2;PMS_P1;PMS_P2;Temp;Humidity;BMP_temperature;BMP_pressure;BME280_temperature;BME280_humidity;BME280_pressure;Samples;Min_cycle;Max_cycle;Signal;HPM_P1;HPM_P2
2024/04/07 00:00:36;;;;;;;;;;;;;;;6.13;100.00;98181.16;5073136;28;19912;-83
2024/04/07 00:03:02;;;;;;;;;;;;;;;6.03;100.00;98183.44;5072796;28;20374;-83
2024/04/07 00:05:29;;;;;;;;;;;;;;;5.94;100.00;98183.66;5072803;28;19939;-85
2024/04/07 00:07:55;;;;;;;;;;;;;;;5.84;100.00;98177.91;5056194;28;19913;-83
2024/04/07 00:10:21;;;;;;;;;;;;;;;5.68;100.00;98176.50;5055831;28;19912;-83
2024/04/07 00:12:47;;;;;;;;;;;;;;;5.51;100.00;98175.31;5055915;28;19995;-83
2024/04/07 00:15:12;;;;;;;;;;;;;;;5.45;100.00;98190.28;5072558;28;20022;-83
2024/04/07 00:17:38;;;;;;;;;;;;;;;5.54;100.00;98188.22;5055861;28;20396;-83
2024/04/07 00:20:04;;;;;;;;;;;;;;;5.65;100.00;98184.91;5072737;28;20003;-83
2024/04/07 00:22:29;;;;;;;;;;;;;;;5.77;100.00;98165.59;5071896;28;19912;-85
2024/04/07 00:25:04;;;;;;;;;;;;;;;5.91;100.00;98176.03;5072645;28;19923;-85
2024/04/07 00:27:29;;;;;;;;;;;;;;;6.04;100.00;98183.22;5078338;28;19913;-82
2024/04/07 00:29:55;;;;;;;;;;;;;;;6.13;100.00;98187.28;5074894;28;19938;-82
2024/04/07 00:32:20;;;;;;;;;;;;;;;6.19;100.00;98184.81;5103073;28;20415;-84
2024/04/07 00:34:49;;;;;;;;;;;;;;;6.13;100.00;98189.16;5056060;28;20313;-83
2024/04/07 00:37:15;;;;;;;;;;;;;;;5.97;100.00;98181.59;5055107;28;19916;-83
2024/04/07 00:39:41;;;;;;;;;;;;;;;5.79;100.00;98182.22;5055726;28;19930;-84
2024/04/07 00:42:07;;;;;;;;;;;;;;;5.60;100.00;98186.56;5052430;28;20314;-83
2024/04/07 00:44:32;;;;;;;;;;;;;;;5.46;100.00;98188.44;5054322;28;19919;-83
2024/04/07 00:46:57;;;;;;;;;;;;;;;5.33;100.00;98185.75;5075727;28;20351;-86
2024/04/07 00:49:23;;;;;;;;;;;;;;;5.28;100.00;98179.19;5075563;28;19927;-83
2024/04/07 00:51:48;;;;;;;;;;;;;;;5.25;100.00;98178.78;5059319;28;19919;-82
2024/04/07 00:54:14;;;;;;;;;;;;;;;5.23;100.00;98184.31;5055993;28;20024;-84
2024/04/07 00:56:40;;;;;;;;;;;;;;;5.25;100.00;98181.47;5058469;28;19966;-83
2024/04/07 00:59:06;;;;;;;;;;;;;;;5.24;100.00;98174.50;5059261;28;19916;-84
2024/04/07 01:01:32;;;;;;;;;;;;;;;5.18;100.00;98178.78;5075397;28;19934;-83
2024/04/07 01:03:57;;;;;;;;;;;;;;;5.14;100.00;98174.91;5059177;28;19916;-84
2024/04/07 01:06:23;;;;;;;;;;;;;;;5.28;100.00;98176.53;5075548;28;19916;-83
2024/04/07 01:08:49;;;;;;;;;;;;;;;5.56;100.00;98180.84;5075311;28;19965;-82
2024/04/07 01:11:14;;;;;;;;;;;;;;;5.75;100.00;98173.03;5058138;28;20007;-84
2024/04/07 01:13:40;;;;;;;;;;;;;;;5.83;100.00;98176.28;5059121;28;20277;-84
2024/04/07 01:16:05;;;;;;;;;;;;;;;5.94;100.00;98174.84;5058669;28;19913;-84
2024/04/07 01:18:31;;;;;;;;;;;;;;;6.00;100.00;98182.00;5075252;28;20424;-83
2024/04/07 01:20:56;;;;;;;;;;;;;;;6.12;100.00;98185.66;5058064;28;19931;-83
2024/04/07 01:23:22;;;;;;;;;;;;;;;6.30;100.00;98189.50;5058872;28;19920;-83
2024/04/07 01:25:47;;;;;;;;;;;;;;;6.40;100.00;98181.84;5059544;28;19967;-82
2024/04/07 01:28:13;;;;;;;;;;;;;;;6.32;100.00;98192.78;5038253;28;19921;-83
2024/04/07 01:30:39;;;;;;;;;;;;;;;6.23;100.00;98194.06;5064283;28;19959;-85
2024/04/07 01:33:04;;;;;;;;;;;;;;;6.14;100.00;98194.28;5059252;28;19962;-83
2024/04/07 01:35:30;;;;;;;;;;;;;;;6.10;100.00;98193.06;5075085;28;20277;-84
2024/04/07 01:37:59;;;;;;;;;;;;;;;6.15;100.00;98197.75;5074559;28;19916;-83
2024/04/07 01:40:24;;;;;;;;;;;;;;;6.25;100.00;98198.16;5074516;28;19920;-83
2024/04/07 01:42:50;;;;;;;;;;;;;;;6.36;100.00;98202.00;5074947;28;19966;-82
2024/04/07 01:45:16;;;;;;;;;;;;;;;6.38;100.00;98194.63;5074693;28;19917;-83
2024/04/07 01:47:41;;;;;;;;;;;;;;;6.24;100.00;98196.50;5057524;28;20381;-83
2024/04/07 01:50:07;;;;;;;;;;;;;;;6.14;100.00;98188.94;5058346;28;19986;-83
2024/04/07 01:52:32;;;;;;;;;;;;;;;6.09;100.00;98187.94;5058594;28;19917;-83
2024/04/07 01:54:58;;;;;;;;;;;;;;;5.97;100.00;98193.09;5058256;28;20404;-83
2024/04/07 01:57:24;;;;;;;;;;;;;;;5.92;100.00;98185.69;5073208;28;20462;-82
2024/04/07 01:59:49;;;;;;;;;;;;;;;5.84;100.00;98188.56;5058385;28;20003;-82
2024/04/07 02:02:16;;;;;;;;;;;;;;;5.84;100.00;98185.09;5091557;28;19917;-83
2024/04/07 02:04:42;;;;;;;;;;;;;;;5.79;100.00;98185.69;5058443;28;20267;-84
2024/04/07 02:07:08;;;;;;;;;;;;;;;5.80;100.00;98194.53;5057500;28;20381;-83
2024/04/07 02:09:33;;;;;;;;;;;;;;;5.89;100.00;98190.63;5057664;28;19920;-87
2024/04/07 02:11:59;;;;;;;;;;;;;;;6.08;100.00;98199.63;5057518;28;20420;-83
2024/04/07 02:14:24;;;;;;;;;;;;;;;6.21;100.00;98196.09;5057465;28;20309;-83
2024/04/07 02:16:50;;;;;;;;;;;;;;;6.24;100.00;98199.16;5057183;28;19922;-85
2024/04/07 02:19:16;;;;;;;;;;;;;;;6.15;100.00;98201.25;5057259;28;19970;-84
2024/04/07 02:21:41;;;;;;;;;;;;;;;6.05;100.00;98194.72;5057520;28;19919;-83
2024/04/07 02:24:07;;;;;;;;;;;;;;;5.97;100.00;98197.59;5074132;28;19920;-83
2024/04/07 02:26:32;;;;;;;;;;;;;;;5.82;100.00;98193.31;5057233;28;19962;-83
2024/04/07 02:28:58;;;;;;;;;;;;;;;5.84;100.00;98187.75;5057051;28;19955;-83
2024/04/07 02:31:24;;;;;;;;;;;;;;;5.82;100.00;98195.97;5073922;28;19917;-83
2024/04/07 02:33:50;;;;;;;;;;;;;;;5.78;100.00;98178.75;5073883;28;19916;-83
2024/04/07 02:36:16;;;;;;;;;;;;;;;5.88;100.00;98181.00;5056669;28;20016;-84
2024/04/07 02:38:42;;;;;;;;;;;;;;;5.92;100.00;98188.34;5057369;28;20347;-83
2024/04/07 02:41:10;;;;;;;;;;;;;;;5.99;100.00;98191.03;5073278;28;19975;-83
2024/04/07 02:43:35;;;;;;;;;;;;;;;6.13;100.00;98200.63;5056936;28;20436;-84
2024/04/07 02:48:45;;;;;;;;;;;;;;;6.15;100.00;98201.25;5072527;28;19928;-84
2024/04/07 02:51:10;;;;;;;;;;;;;;;6.01;100.00;98209.50;5057178;28;20263;-83
2024/04/07 02:53:36;;;;;;;;;;;;;;;5.90;100.00;98213.59;5085639;28;19916;-82
2024/04/07 02:56:02;;;;;;;;;;;;;;;5.85;100.00;98213.41;5074754;28;19955;-84
2024/04/07 02:58:28;;;;;;;;;;;;;;;5.80;100.00;98216.69;5073249;28;20019;-83
2024/04/07 03:01:01;;;;;;;;;;;;;;;5.75;100.00;98215.69;5072924;28;19920;-83
2024/04/07 03:03:27;;;;;;;;;;;;;;;5.77;100.00;98218.94;5073078;28;19931;-82
2024/04/07 03:05:53;;;;;;;;;;;;;;;5.81;100.00;98217.50;5056840;28;19916;-82
2024/04/07 03:08:19;;;;;;;;;;;;;;;5.86;100.00;98228.38;5055535;28;19931;-83
2024/04/07 03:10:54;;;;;;;;;;;;;;;5.90;100.00;98225.09;5073123;28;19920;-82
2024/04/07 03:13:19;;;;;;;;;;;;;;;5.99;100.00;98227.56;5056419;28;19930;-82
2024/04/07 03:15:45;;;;;;;;;;;;;;;6.01;100.00;98223.66;5090002;28;20372;-83
2024/04/07 03:18:10;;;;;;;;;;;;;;;6.05;100.00;98227.53;5072864;28;19916;-82
2024/04/07 03:20:36;;;;;;;;;;;;;;;6.01;100.00;98221.00;5089693;28;20409;-83
2024/04/07 03:23:02;;;;;;;;;;;;;;;6.02;100.00;98238.63;5089832;28;19916;-84
2024/04/07 03:25:28;;;;;;;;;;;;;;;6.01;100.00;98225.53;5072450;28;20264;-83
2024/04/07 03:27:54;;;;;;;;;;;;;;;6.05;100.00;98230.22;5072705;28;19927;-82
2024/04/07 03:30:19;;;;;;;;;;;;;;;6.07;100.00;98227.34;5089468;28;19916;-81
2024/04/07 03:32:45;;;;;;;;;;;;;;;5.97;100.00;98230.44;5089786;28;19916;-83
2024/04/07 03:35:10;;;;;;;;;;;;;;;6.00;100.00;98219.34;5056605;28;20236;-83
2024/04/07 03:37:36;;;;;;;;;;;;;;;5.98;100.00;98218.75;5072384;28;19917;-82
2024/04/07 03:40:02;;;;;;;;;;;;;;;6.01;100.00;98226.34;5073077;28;19951;-83
2024/04/07 03:42:27;;;;;;;;;;;;;;;5.95;100.00;98227.16;5052868;28;20000;-82
2024/04/07 03:44:53;;;;;;;;;;;;;;;5.97;100.00;98229.63;5046084;28;19966;-82
2024/04/07 03:47:18;;;;;;;;;;;;;;;5.90;100.00;98233.09;5089853;28;19987;-82
2024/04/07 03:49:44;;;;;;;;;;;;;;;5.88;100.00;98247.66;5072013;28;19921;-82
2024/04/07 03:52:09;;;;;;;;;;;;;;;5.82;100.00;98248.47;5088983;28;19916;-83
2024/04/07 03:54:35;;;;;;;;;;;;;;;5.77;100.00;98241.13;5072559;28;19931;-86
2024/04/07 03:57:01;;;;;;;;;;;;;;;5.68;100.00;98248.47;5055604;28;19916;-82
2024/04/07 03:59:27;;;;;;;;;;;;;;;5.57;100.00;98253.63;5072740;28;19916;-82
2024/04/07 04:01:53;;;;;;;;;;;;;;;5.53;100.00;98253.22;5072154;28;20014;-82
2024/04/07 04:04:18;;;;;;;;;;;;;;;5.50;100.00;98256.28;5055760;28;20354;-83
2024/04/07 04:06:43;;;;;;;;;;;;;;;5.41;100.00;98263.66;5071907;28;19927;-82
2024/04/07 04:09:09;;;;;;;;;;;;;;;5.35;100.00;98263.66;5071503;28;19916;-83
2024/04/07 04:11:35;;;;;;;;;;;;;;;5.22;100.00;98275.13;5052133;28;20003;-83
2024/04/07 04:14:01;;;;;;;;;;;;;;;5.13;100.00;98266.47;5055379;28;19963;-84
2024/04/07 04:16:26;;;;;;;;;;;;;;;5.13;100.00;98271.78;5088931;28;19924;-82
2024/04/07 04:18:52;;;;;;;;;;;;;;;5.20;100.00;98271.81;5072229;28;19917;-82
2024/04/07 04:21:18;;;;;;;;;;;;;;;5.19;100.00;98263.03;5059338;28;19924;-82
2024/04/07 04:23:43;;;;;;;;;;;;;;;5.20;100.00;98272.63;5076612;28;19926;-82
2024/04/07 04:26:09;;;;;;;;;;;;;;;5.37;100.00;98280.25;5077031;28;19927;-82
2024/04/07 04:28:34;;;;;;;;;;;;;;;5.58;100.00;98280.06;5059286;28;19916;-82
2024/04/07 04:31:06;;;;;;;;;;;;;;;5.73;100.00;98272.69;5075919;28;20282;-83
2024/04/07 04:33:31;;;;;;;;;;;;;;;5.75;100.00;98285.81;5076107;28;19916;-82
2024/04/07 04:35:56;;;;;;;;;;;;;;;5.75;100.00;98277.00;5059968;28;20256;-82
2024/04/07 04:38:22;;;;;;;;;;;;;;;5.68;100.00;98288.47;5092246;28;19923;-85
2024/04/07 04:40:51;;;;;;;;;;;;;;;5.51;100.00;98281.91;5059036;28;19925;-83
2024/04/07 04:43:18;;;;;;;;;;;;;;;5.44;100.00;98291.75;5059437;28;19951;-83
2024/04/07 04:45:45;;;;;;;;;;;;;;;5.43;100.00;98306.09;5075892;28;19927;-83
2024/04/07 04:48:10;;;;;;;;;;;;;;;5.40;100.00;98295.81;5092428;28;19957;-86
2024/04/07 04:50:35;;;;;;;;;;;;;;;5.48;100.00;98306.31;5075100;28;19920;-82
2024/04/07 04:53:02;;;;;;;;;;;;;;;5.54;100.00;98310.81;5059634;28;19912;-83
2024/04/07 04:55:28;;;;;;;;;;;;;;;5.62;100.00;98307.16;5075748;28;19912;-82
2024/04/07 04:57:53;;;;;;;;;;;;;;;5.82;100.00;98307.13;5092464;28;19912;-82
2024/04/07 05:00:19;;;;;;;;;;;;;;;6.01;100.00;98318.88;5075469;28;20034;-82
2024/04/07 05:02:44;;;;;;;;;;;;;;;6.08;100.00;98315.16;5075676;28;19966;-82
2024/04/07 05:05:10;;;;;;;;;;;;;;;5.98;100.00;98316.59;5075818;28;20298;-82
2024/04/07 05:07:36;;;;;;;;;;;;;;;6.03;100.00;98330.16;5076044;28;20005;-82
2024/04/07 05:10:03;;;;;;;;;;;;;;;5.85;100.00;98328.09;5057997;28;20005;-83
2024/04/07 05:12:29;;;;;;;;;;;;;;;5.60;100.00;98342.00;5078918;28;19917;-83
2024/04/07 05:14:54;;;;;;;;;;;;;;;5.44;100.00;98342.38;5090538;28;19938;-83
2024/04/07 05:17:20;;;;;;;;;;;;;;;5.41;100.00;98340.94;5065982;28;20406;-84
2024/04/07 05:19:48;;;;;;;;;;;;;;;5.44;100.00;98337.88;5058846;28;19913;-84
2024/04/07 05:22:14;;;;;;;;;;;;;;;5.46;100.00;98340.34;5087796;28;19966;-82
2024/04/07 05:24:39;;;;;;;;;;;;;;;5.54;100.00;98334.81;5058642;28;19912;-86
2024/04/07 05:27:05;;;;;;;;;;;;;;;5.59;100.00;98351.03;5058875;28;19919;-83
2024/04/07 05:29:30;;;;;;;;;;;;;;;5.64;100.00;98345.91;5058793;28;20355;-83
2024/04/07 05:31:56;;;;;;;;;;;;;;;5.69;100.00;98351.44;5074068;28;19920;-85
2024/04/07 05:34:21;;;;;;;;;;;;;;;5.65;100.00;98360.06;5092195;28;19997;-82
2024/04/07 05:36:47;;;;;;;;;;;;;;;5.53;100.00;98362.50;5074389;28;19916;-83
2024/04/07 05:39:12;;;;;;;;;;;;;;;5.40;100.00;98365.09;5058826;28;19919;-83
2024/04/07 05:41:38;;;;;;;;;;;;;;;5.30;100.00;98373.50;5074436;28;19912;-84
2024/04/07 05:44:04;;;;;;;;;;;;;;;5.33;100.00;98370.44;5075315;28;20007;-84
2024/04/07 05:46:29;;;;;;;;;;;;;;;5.31;100.00;98350.34;5074944;28;20404;-83
2024/04/07 05:48:55;;;;;;;;;;;;;;;5.31;100.00;98374.31;5058460;28;19924;-83
2024/04/07 05:51:21;;;;;;;;;;;;;;;5.39;100.00;98376.81;5074211;28;19970;-82
2024/04/07 05:53:46;;;;;;;;;;;;;;;5.42;100.00;98379.88;5057978;28;20344;-82
2024/04/07 05:56:12;;;;;;;;;;;;;;;5.39;100.00;98382.13;5074823;28;20382;-82
2024/04/07 05:58:38;;;;;;;;;;;;;;;5.36;100.00;98377.22;5057547;28;20282;-82
2024/04/07 06:01:04;;;;;;;;;;;;;;;5.25;100.00;98374.09;5057611;28;19923;-83
2024/04/07 06:03:29;;;;;;;;;;;;;;;5.28;100.00;98380.88;5074138;28;19962;-82
2024/04/07 06:05:55;;;;;;;;;;;;;;;5.40;100.00;98378.44;5058300;28;19913;-82
2024/04/07 06:08:20;;;;;;;;;;;;;;;5.50;100.00;98384.19;5073646;28;19916;-82
2024/04/07 06:10:46;;;;;;;;;;;;;;;5.63;100.00;98389.56;5057497;28;20019;-83
2024/04/07 06:13:11;;;;;;;;;;;;;;;5.74;100.00;98390.81;5073544;28;20286;-82
2024/04/07 06:15:36;;;;;;;;;;;;;;;5.97;100.00;98397.66;5057711;28;19916;-82
2024/04/07 06:18:02;;;;;;;;;;;;;;;6.06;100.00;98399.94;5056823;28;20010;-82
2024/04/07 06:20:27;;;;;;;;;;;;;;;6.21;100.00;98396.22;5057406;28;19924;-82
2024/04/07 06:22:53;;;;;;;;;;;;;;;6.44;100.00;98407.31;5073229;28;19916;-82
2024/04/07 06:25:19;;;;;;;;;;;;;;;6.66;100.00;98407.88;5057543;28;20347;-81
2024/04/07 06:27:45;;;;;;;;;;;;;;;6.79;100.00;98417.72;5057768;28;19962;-82
2024/04/07 06:30:11;;;;;;;;;;;;;;;6.93;100.00;98427.38;5057602;28;19916;-82
2024/04/07 06:32:36;;;;;;;;;;;;;;;7.07;100.00;98425.47;5053938;28;19939;-84
2024/04/07 06:35:02;;;;;;;;;;;;;;;7.34;100.00;98434.22;5073678;28;19924;-82
2024/04/07 06:37:30;;;;;;;;;;;;;;;7.69;100.00;98434.66;5074327;28;20347;-82
2024/04/07 06:39:55;;;;;;;;;;;;;;;7.81;100.00;98445.50;5095391;28;19923;-82
2024/04/07 06:42:26;;;;;;;;;;;;;;;7.87;100.00;98447.31;5071204;28;19916;-82
2024/04/07 06:44:53;;;;;;;;;;;;;;;7.89;100.00;98463.16;5101031;28;19941;-83
2024/04/07 06:47:19;;;;;;;;;;;;;;;7.16;100.00;98461.59;5057565;28;19924;-82
2024/04/07 06:49:47;;;;;;;;;;;;;;;6.77;100.00;98466.03;5056896;28;19916;-82
2024/04/07 06:52:12;;;;;;;;;;;;;;;6.60;100.00;98470.94;5089450;28;19924;-82
2024/04/07 06:54:38;;;;;;;;;;;;;;;6.86;100.00;98463.94;5057314;28;19909;-82
2024/04/07 06:57:03;;;;;;;;;;;;;;;7.15;100.00;98480.53;5056078;28;19922;-85
2024/04/07 06:59:29;;;;;;;;;;;;;;;6.95;100.00;98478.72;5058191;28;19916;-85
2024/04/07 07:01:55;;;;;;;;;;;;;;;6.73;100.00;98485.34;5040433;28;19924;-85
2024/04/07 07:04:20;;;;;;;;;;;;;;;6.67;100.00;98492.31;5056903;28;19912;-86
2024/04/07 07:06:46;;;;;;;;;;;;;;;6.66;100.00;98495.19;5073383;28;19918;-83
2024/04/07 07:09:11;;;;;;;;;;;;;;;6.89;100.00;98500.94;5055173;28;20422;-82
2024/04/07 07:11:37;;;;;;;;;;;;;;;7.65;100.00;98511.03;5054758;28;19923;-83
2024/04/07 07:14:02;;;;;;;;;;;;;;;7.96;100.00;98506.75;5056651;28;19912;-82
2024/04/07 07:16:28;;;;;;;;;;;;;;;7.78;100.00;98506.63;5039904;28;19912;-83
2024/04/07 07:18:53;;;;;;;;;;;;;;;7.69;100.00;98504.19;5055653;28;20267;-83
2024/04/07 07:21:19;;;;;;;;;;;;;;;8.34;100.00;98519.31;5039774;28;19913;-82
2024/04/07 07:23:44;;;;;;;;;;;;;;;9.59;100.00;98516.53;5056310;28;19969;-83
2024/04/07 07:26:09;;;;;;;;;;;;;;;10.90;100.00;98505.19;5072978;28;19919;-81
2024/04/07 07:28:35;;;;;;;;;;;;;;;11.07;100.00;98508.03;5040121;28;20338;-83
2024/04/07 07:31:00;;;;;;;;;;;;;;;11.61;100.00;98514.03;5056486;28;19914;-83
2024/04/07 07:33:26;;;;;;;;;;;;;;;12.16;100.00;98518.09;5073144;28;19912;-83
2024/04/07 07:35:52;;;;;;;;;;;;;;;12.28;96.98;98527.78;5047997;28;20351;-80
2024/04/07 07:38:17;;;;;;;;;;;;;;;11.89;97.92;98526.75;5070796;28;19923;-80
2024/04/07 07:40:43;;;;;;;;;;;;;;;10.43;100.00;98526.63;5045680;28;20366;-81
2024/04/07 07:43:08;;;;;;;;;;;;;;;9.43;100.00;98533.22;5040070;28;19912;-80
2024/04/07 07:45:34;;;;;;;;;;;;;;;8.66;100.00;98533.53;5072798;28;20468;-82
2024/04/07 07:47:59;;;;;;;;;;;;;;;9.74;100.00;98544.84;5039756;28;20014;-83
2024/04/07 07:50:25;;;;;;;;;;;;;;;11.51;100.00;98540.72;5072813;28;19916;-83
2024/04/07 07:52:50;;;;;;;;;;;;;;;12.68;92.31;98543.03;5039517;28;20378;-83
2024/04/07 07:55:16;;;;;;;;;;;;;;;12.26;88.77;98542.53;5039435;28;19963;-82
2024/04/07 07:57:41;;;;;;;;;;;;;;;13.17;85.17;98545.97;5040101;28;19913;-83
2024/04/07 08:00:08;;;;;;;;;;;;;;;14.27;73.15;98553.38;5055975;28;20421;-83
2024/04/07 08:02:33;;;;;;;;;;;;;;;14.71;69.33;98554.13;5056098;28;19917;-82
2024/04/07 08:04:59;;;;;;;;;;;;;;;12.97;75.04;98559.97;5072496;28;20008;-82
2024/04/07 08:07:24;;;;;;;;;;;;;;;11.15;88.83;98556.06;5039625;28;19916;-81
2024/04/07 08:09:50;;;;;;;;;;;;;;;10.17;100.00;98563.53;5056122;28;19920;-81
2024/04/07 08:12:15;;;;;;;;;;;;;;;9.93;100.00;98551.84;5055906;28;19916;-81
2024/04/07 08:14:41;;;;;;;;;;;;;;;9.76;100.00;98564.22;5039624;28;19960;-81
2024/04/07 08:17:07;;;;;;;;;;;;;;;9.45;100.00;98574.06;5056032;28;19919;-81
2024/04/07 08:19:33;;;;;;;;;;;;;;;9.46;100.00;98576.50;5055766;28;19955;-81
2024/04/07 08:21:58;;;;;;;;;;;;;;;9.45;100.00;98582.13;5039558;28;19955;-81
2024/04/07 08:24:24;;;;;;;;;;;;;;;9.51;100.00;98567.00;5055854;28;19916;-82
2024/04/07 08:26:49;;;;;;;;;;;;;;;9.49;100.00;98580.63;5072506;28;20022;-81
2024/04/07 08:29:15;;;;;;;;;;;;;;;9.53;100.00;98586.38;5039424;28;19979;-82
2024/04/07 08:31:40;;;;;;;;;;;;;;;9.83;100.00;98591.81;5072498;28;19919;-82
2024/04/07 08:34:06;;;;;;;;;;;;;;;10.89;100.00;98579.66;5055855;28;20393;-82
2024/04/07 08:36:31;;;;;;;;;;;;;;;11.91;95.83;98583.88;5055754;28;19917;-81
2024/04/07 08:38:56;;;;;;;;;;;;;;;12.05;90.69;98587.94;5055740;28;19919;-82
2024/04/07 08:41:22;;;;;;;;;;;;;;;11.29;92.92;98588.94;5055470;28;19959;-82
2024/04/07 08:43:49;;;;;;;;;;;;;;;11.16;95.12;98581.91;5055765;28;20286;-82
2024/04/07 08:46:15;;;;;;;;;;;;;;;11.64;89.32;98586.22;5039624;28;19931;-82
2024/04/07 08:48:40;;;;;;;;;;;;;;;11.35;92.05;98586.16;5087591;28;19955;-83
2024/04/07 08:51:09;;;;;;;;;;;;;;;11.29;92.75;98597.00;5070005;28;19919;-82
2024/04/07 08:53:36;;;;;;;;;;;;;;;11.23;93.96;98593.38;5055545;28;19917;-82
2024/04/07 08:56:02;;;;;;;;;;;;;;;13.31;81.09;98607.72;5055687;28;19919;-82
2024/04/07 08:58:27;;;;;;;;;;;;;;;14.61;69.96;98605.41;5074776;28;20327;-82
2024/04/07 09:00:53;;;;;;;;;;;;;;;15.00;67.27;98615.22;5039885;28;19920;-83
2024/04/07 09:03:18;;;;;;;;;;;;;;;15.57;63.56;98610.00;5039104;28;20259;-83
2024/04/07 09:05:44;;;;;;;;;;;;;;;15.75;60.77;98624.22;5055408;28;19922;-83
2024/04/07 09:08:09;;;;;;;;;;;;;;;16.22;59.04;98629.63;5042889;28;19912;-86
2024/04/07 09:10:35;;;;;;;;;;;;;;;16.08;59.04;98631.16;5059197;28;19918;-86
2024/04/07 09:13:01;;;;;;;;;;;;;;;15.86;59.08;98627.81;5058385;28;20003;-87
2024/04/07 09:15:26;;;;;;;;;;;;;;;15.71;59.26;98629.34;5059044;28;19959;-86
2024/04/07 09:17:52;;;;;;;;;;;;;;;15.77;58.71;98636.44;5043000;28;19913;-86
2024/04/07 09:20:18;;;;;;;;;;;;;;;16.09;57.93;98634.69;5059789;28;20282;-87
2024/04/07 09:22:45;;;;;;;;;;;;;;;16.14;55.83;98630.13;5042586;28;19919;-86
2024/04/07 09:25:11;;;;;;;;;;;;;;;16.00;56.41;98627.06;5042575;28;19912;-86
2024/04/07 09:27:36;;;;;;;;;;;;;;;16.09;55.95;98634.69;5042450;28;20004;-86
2024/04/07 09:30:06;;;;;;;;;;;;;;;16.05;54.75;98637.13;5075590;28;19912;-86
2024/04/07 09:32:31;;;;;;;;;;;;;;;16.03;54.16;98631.16;5075426;28;19934;-87
2024/04/07 09:34:57;;;;;;;;;;;;;;;16.18;54.25;98627.69;5042340;28;20418;-86
2024/04/07 09:37:22;;;;;;;;;;;;;;;16.15;54.62;98645.31;5058684;28;19913;-86
2024/04/07 09:39:48;;;;;;;;;;;;;;;15.10;56.10;98650.50;5058247;28;20003;-86
2024/04/07 09:42:15;;;;;;;;;;;;;;;14.41;59.70;98673.56;5058611;28;19912;-86
2024/04/07 09:44:43;;;;;;;;;;;;;;;15.10;57.93;98658.63;5042207;28;19916;-86
2024/04/07 09:47:09;;;;;;;;;;;;;;;15.44;57.80;98671.91;5058930;28;19966;-86
2024/04/07 09:49:41;;;;;;;;;;;;;;;15.23;57.69;98681.75;5042151;28;19916;-86
2024/04/07 09:52:08;;;;;;;;;;;;;;;14.25;58.75;98677.94;5058967;28;19998;-86
2024/04/07 09:54:40;;;;;;;;;;;;;;;15.51;56.77;98681.47;5042108;28;19958;-85
2024/04/07 09:57:09;;;;;;;;;;;;;;;15.60;55.64;98673.66;5058426;28;19916;-85
2024/04/07 09:59:38;;;;;;;;;;;;;;;16.82;53.50;98670.81;5039786;28;19939;-85
2024/04/07 10:02:04;;;;;;;;;;;;;;;16.61;53.87;98686.19;5074290;28;19978;-86
2024/04/07 10:04:30;;;;;;;;;;;;;;;15.52;54.82;98683.09;5058961;28;20363;-84
2024/04/07 10:06:55;;;;;;;;;;;;;;;14.82;56.88;98681.34;5090233;28;19917;-83
2024/04/07 10:09:21;;;;;;;;;;;;;;;13.93;59.20;98694.00;5072969;28;19913;-83
2024/04/07 10:11:48;;;;;;;;;;;;;;;12.75;63.40;98694.72;5075311;28;20240;-83
2024/04/07 10:14:17;;;;;;;;;;;;;;;11.86;71.01;98691.50;5074713;28;19958;-83
2024/04/07 10:16:49;;;;;;;;;;;;;;;12.06;72.13;98696.50;5074147;28;19912;-83
2024/04/07 10:19:15;;;;;;;;;;;;;;;11.98;72.65;98700.38;5059051;28;19912;-84
2024/04/07 10:21:40;;;;;;;;;;;;;;;11.89;76.51;98701.78;5060073;28;20275;-84
2024/04/07 10:24:06;;;;;;;;;;;;;;;11.49;83.16;98707.81;5058524;28;19912;-83
2024/04/07 10:26:32;;;;;;;;;;;;;;;10.64;95.14;98718.75;5058100;28;19919;-83
2024/04/07 10:28:57;;;;;;;;;;;;;;;9.59;100.00;98725.81;5058472;28;20347;-84
2024/04/07 10:31:23;;;;;;;;;;;;;;;8.76;100.00;98721.44;5074368;28;19986;-84
2024/04/07 10:33:50;;;;;;;;;;;;;;;8.23;100.00;98724.28;5087347;28;19927;-84
2024/04/07 10:36:16;;;;;;;;;;;;;;;9.28;100.00;98725.84;5064208;28;19956;-85
2024/04/07 10:38:45;;;;;;;;;;;;;;;12.02;100.00;98733.88;5073925;28;19978;-84
2024/04/07 10:41:14;;;;;;;;;;;;;;;11.87;100.00;98726.25;5057731;28;20286;-84
2024/04/07 10:43:40;;;;;;;;;;;;;;;11.17;100.00;98742.25;5057729;28;20367;-84
2024/04/07 10:46:06;;;;;;;;;;;;;;;10.73;100.00;98752.34;5057491;28;19916;-84
2024/04/07 10:48:31;;;;;;;;;;;;;;;10.17;100.00;98748.00;5057470;28;19998;-84
2024/04/07 10:51:03;;;;;;;;;;;;;;;9.62;100.00;98762.13;5057722;28;19916;-83
2024/04/07 10:53:29;;;;;;;;;;;;;;;8.98;100.00;98750.59;5073822;28;20006;-84
2024/04/07 10:55:54;;;;;;;;;;;;;;;8.46;100.00;98747.09;5074248;28;19972;-84
2024/04/07 10:58:20;;;;;;;;;;;;;;;10.25;100.00;98761.16;5074116;28;20049;-84
2024/04/07 11:00:46;;;;;;;;;;;;;;;12.22;100.00;98757.75;5058380;28;19916;-84
2024/04/07 11:03:11;;;;;;;;;;;;;;;13.26;100.00;98764.13;5057422;28;19919;-83
2024/04/07 11:05:37;;;;;;;;;;;;;;;13.53;100.00;98764.41;5057813;28;19916;-83
2024/04/07 11:08:02;;;;;;;;;;;;;;;11.83;100.00;98767.34;5056774;28;19935;-84
2024/04/07 11:10:37;;;;;;;;;;;;;;;10.81;100.00;98778.94;5056927;28;19938;-84
2024/04/07 11:13:06;;;;;;;;;;;;;;;10.30;100.00;98777.44;5073388;28;19912;-83
2024/04/07 11:15:32;;;;;;;;;;;;;;;10.06;100.00;98779.91;5073372;28;20476;-85
2024/04/07 11:18:11;;;;;;;;;;;;;;;9.99;100.00;98795.25;5056564;28;19930;-84
2024/04/07 11:20:36;;;;;;;;;;;;;;;11.41;100.00;98796.97;5073266;28;19913;-84
2024/04/07 11:23:02;;;;;;;;;;;;;;;12.86;100.00;98802.78;5072943;28;19912;-85
2024/04/07 11:25:27;;;;;;;;;;;;;;;12.40;100.00;98809.88;5073573;28;19916;-85
2024/04/07 11:27:53;;;;;;;;;;;;;;;11.71;100.00;98804.19;5073135;28;19951;-84
2024/04/07 11:30:18;;;;;;;;;;;;;;;10.60;100.00;98838.53;5056041;28;19924;-84
2024/04/07 11:32:44;;;;;;;;;;;;;;;9.15;100.00;98836.69;5057259;28;19919;-84
2024/04/07 11:35:09;;;;;;;;;;;;;;;8.38;100.00;98821.25;5057609;28;20022;-84
2024/04/07 11:37:35;;;;;;;;;;;;;;;9.14;100.00;98809.06;5056558;28;20427;-84
2024/04/07 11:40:00;;;;;;;;;;;;;;;10.84;100.00;98824.19;5072980;28;19916;-84
2024/04/07 11:42:26;;;;;;;;;;;;;;;11.77;100.00;98830.97;5073047;28;19912;-84
2024/04/07 11:44:52;;;;;;;;;;;;;;;12.33;100.00;98823.47;5056477;28;19965;-85
2024/04/07 11:47:18;;;;;;;;;;;;;;;12.80;100.00;98825.31;5057888;28;20014;-85
2024/04/07 11:49:45;;;;;;;;;;;;;;;13.03;100.00;98837.94;5072884;28;20362;-84
2024/04/07 11:52:11;;;;;;;;;;;;;;;13.10;100.00;98830.53;5072663;28;19916;-84
2024/04/07 11:54:36;;;;;;;;;;;;;;;13.46;100.00;98825.81;5057322;28;19999;-83
2024/04/07 11:57:02;;;;;;;;;;;;;;;13.82;100.00;98811.09;5060782;28;20278;-82
2024/04/07 11:59:27;;;;;;;;;;;;;;;13.86;100.00;98812.22;5056284;28;19912;-85
2024/04/07 12:01:53;;;;;;;;;;;;;;;14.14;100.00;98835.66;5056325;28;19916;-85
2024/04/07 12:04:18;;;;;;;;;;;;;;;14.60;100.00;98835.53;5072779;28;19959;-85
2024/04/07 12:06:44;;;;;;;;;;;;;;;14.89;100.00;98823.47;5072583;28;20286;-85
2024/04/07 12:09:10;;;;;;;;;;;;;;;15.34;93.56;98808.84;5056524;28;19951;-85
2024/04/07 12:11:36;;;;;;;;;;;;;;;15.49;73.75;98824.44;5072483;28;20046;-85
2024/04/07 12:14:02;;;;;;;;;;;;;;;15.50;68.46;98823.38;5072302;28;19970;-82
2024/04/07 12:16:27;;;;;;;;;;;;;;;16.15;59.71;98820.75;5055948;28;19916;-82
2024/04/07 12:18:53;;;;;;;;;;;;;;;15.88;62.37;98826.19;5055864;28;19919;-82
2024/04/07 12:21:18;;;;;;;;;;;;;;;15.69;61.61;98825.75;5056536;28;19918;-83
2024/04/07 12:23:44;;;;;;;;;;;;;;;16.35;60.35;98807.31;5072766;28;19919;-83
2024/04/07 12:26:09;;;;;;;;;;;;;;;16.67;52.96;98817.25;5056013;28;19958;-84
2024/04/07 12:28:35;;;;;;;;;;;;;;;16.69;54.80;98810.50;5072348;28;19977;-84
2024/04/07 12:31:00;;;;;;;;;;;;;;;14.86;54.18;98839.41;5056643;28;20331;-86
2024/04/07 12:33:26;;;;;;;;;;;;;;;12.53;78.27;98847.38;5072708;28;19962;-86
2024/04/07 12:35:53;;;;;;;;;;;;;;;12.20;100.00;98901.84;5055770;28;19913;-85
2024/04/07 12:38:18;;;;;;;;;;;;;;;12.42;100.00;98891.34;5072545;28;19912;-83
2024/04/07 12:40:44;;;;;;;;;;;;;;;12.23;100.00;98891.44;5057711;28;19919;-84